createdAt,value
2022-10-23T00:00:24.657Z,1009.57
2022-10-23T00:01:24.582Z,1009.59
2022-10-23T00:02:24.639Z,1009.56
2022-10-23T00:03:24.697Z,1009.53
2022-10-23T00:04:24.496Z,1009.52
2022-10-23T00:05:24.700Z,1009.48
2022-10-23T00:06:24.586Z,1009.48
2022-10-23T00:07:24.443Z,1009.47
2022-10-23T00:08:24.412Z,1009.47
2022-10-23T00:09:24.426Z,1009.49
2022-10-23T00:10:24.585Z,1009.49
2022-10-23T00:11:24.428Z,1009.46
2022-10-23T00:12:24.463Z,1009.51
2022-10-23T00:13:24.353Z,1009.48
2022-10-23T00:14:24.378Z,1009.50
2022-10-23T00:15:24.517Z,1009.55
2022-10-23T00:16:24.378Z,1009.56
2022-10-23T00:17:24.332Z,1009.58
2022-10-23T00:18:24.577Z,1009.60
2022-10-23T00:19:24.384Z,1009.59
2022-10-23T00:20:24.399Z,1009.61
2022-10-23T00:21:24.306Z,1009.68
2022-10-23T00:22:24.278Z,1009.67
2022-10-23T00:23:24.269Z,1009.72
2022-10-23T00:24:24.211Z,1009.69
2022-10-23T00:25:24.267Z,1009.66
2022-10-23T00:26:24.257Z,1009.67
2022-10-23T00:27:24.413Z,1009.69
2022-10-23T00:28:24.293Z,1009.66
2022-10-23T00:29:24.146Z,1009.60
2022-10-23T00:30:24.152Z,1009.62
2022-10-23T00:31:24.265Z,1009.58
2022-10-23T00:32:24.324Z,1009.56
2022-10-23T00:33:24.199Z,1009.53
2022-10-23T00:34:24.089Z,1009.52
2022-10-23T00:35:24.208Z,1009.50
2022-10-23T00:36:24.134Z,1009.47
2022-10-23T00:37:24.241Z,1009.49
2022-10-23T00:38:24.143Z,1009.48
2022-10-23T00:39:24.083Z,1009.42
2022-10-23T00:40:24.064Z,1009.43
2022-10-23T00:41:24.050Z,1009.43
2022-10-23T00:42:24.043Z,1009.49
2022-10-23T00:43:23.974Z,1009.46
2022-10-23T00:44:23.957Z,1009.47
2022-10-23T00:45:23.950Z,1009.46
2022-10-23T00:46:23.965Z,1009.45
2022-10-23T00:47:23.922Z,1009.48
2022-10-23T00:48:23.945Z,1009.45
2022-10-23T00:49:23.935Z,1009.41
2022-10-23T00:50:23.882Z,1009.42
2022-10-23T00:51:23.917Z,1009.42
2022-10-23T00:52:23.841Z,1009.40
2022-10-23T00:53:23.915Z,1009.48
2022-10-23T00:54:25.070Z,1009.52
2022-10-23T00:55:23.925Z,1009.48
2022-10-23T00:56:23.810Z,1009.46
2022-10-23T00:57:23.853Z,1009.51
2022-10-23T00:58:23.762Z,1009.50
2022-10-23T00:59:23.766Z,1009.50
2022-10-23T01:00:23.803Z,1009.56
2022-10-23T01:01:24.004Z,1009.56
2022-10-23T01:02:23.905Z,1009.60
2022-10-23T01:03:23.737Z,1009.60
2022-10-23T01:04:23.689Z,1009.62
2022-10-23T01:05:23.678Z,1009.56
2022-10-23T01:06:23.762Z,1009.60
2022-10-23T01:07:23.682Z,1009.56
2022-10-23T01:08:23.665Z,1009.51
2022-10-23T01:09:23.633Z,1009.54
2022-10-23T01:10:23.677Z,1009.53
2022-10-23T01:11:23.597Z,1009.59
2022-10-23T01:12:23.638Z,1009.58
2022-10-23T01:13:23.640Z,1009.62
2022-10-23T01:14:23.571Z,1009.64
2022-10-23T01:15:23.579Z,1009.61
2022-10-23T01:16:23.577Z,1009.62
2022-10-23T01:17:23.572Z,1009.61
2022-10-23T01:18:23.544Z,1009.66
2022-10-23T01:19:23.514Z,1009.63
2022-10-23T01:20:23.519Z,1009.56
2022-10-23T01:21:23.464Z,1009.53
2022-10-23T01:23:23.553Z,1009.46
2022-10-23T01:24:23.484Z,1009.40
2022-10-23T01:25:23.434Z,1009.41
2022-10-23T01:26:23.539Z,1009.39
2022-10-23T01:27:23.463Z,1009.37
2022-10-23T01:28:23.406Z,1009.36
2022-10-23T01:29:23.518Z,1009.37
2022-10-23T01:30:23.409Z,1009.38
2022-10-23T01:31:23.386Z,1009.33
2022-10-23T01:32:23.431Z,1009.34
2022-10-23T01:33:23.409Z,1009.33
2022-10-23T01:34:23.380Z,1009.31
2022-10-23T01:35:23.362Z,1009.33
2022-10-23T01:36:23.319Z,1009.32
2022-10-23T01:37:23.283Z,1009.37
2022-10-23T01:38:23.331Z,1009.33
2022-10-23T01:39:23.469Z,1009.34
2022-10-23T01:40:23.271Z,1009.37
2022-10-23T01:41:23.403Z,1009.36
2022-10-23T01:42:23.210Z,1009.30
2022-10-23T01:43:23.221Z,1009.27
2022-10-23T01:44:23.193Z,1009.31
2022-10-23T01:45:23.264Z,1009.34
2022-10-23T01:46:23.151Z,1009.30
2022-10-23T01:47:23.233Z,1009.32
2022-10-23T01:48:23.148Z,1009.31
2022-10-23T01:49:23.181Z,1009.30
2022-10-23T01:50:23.151Z,1009.32
2022-10-23T01:51:23.183Z,1009.31
2022-10-23T01:52:23.141Z,1009.30
2022-10-23T01:53:23.177Z,1009.26
2022-10-23T01:54:23.105Z,1009.22
2022-10-23T01:55:23.140Z,1009.30
2022-10-23T01:56:23.043Z,1009.27
2022-10-23T01:57:22.994Z,1009.29
2022-10-23T01:58:23.043Z,1009.28
2022-10-23T01:59:22.986Z,1009.27
2022-10-23T02:00:23.139Z,1009.24
2022-10-23T02:01:23.078Z,1009.24
2022-10-23T02:02:23.018Z,1009.20
2022-10-23T02:03:22.941Z,1009.21
2022-10-23T02:04:22.921Z,1009.21
2022-10-23T02:05:22.980Z,1009.19
2022-10-23T02:06:22.884Z,1009.21
2022-10-23T02:07:22.890Z,1009.20
2022-10-23T02:08:22.839Z,1009.22
2022-10-23T02:09:22.933Z,1009.19
2022-10-23T02:10:22.890Z,1009.16
2022-10-23T02:11:22.844Z,1009.16
2022-10-23T02:12:22.936Z,1009.16
2022-10-23T02:13:22.783Z,1009.11
2022-10-23T02:14:22.811Z,1009.11
2022-10-23T02:15:22.774Z,1009.11
2022-10-23T02:16:22.845Z,1009.08
2022-10-23T02:17:22.787Z,1009.04
2022-10-23T02:18:22.825Z,1009.03
2022-10-23T02:19:22.775Z,1009.01
2022-10-23T02:20:22.826Z,1009.03
2022-10-23T02:21:22.732Z,1008.98
2022-10-23T02:22:22.706Z,1008.92
2022-10-23T02:23:22.680Z,1008.93
2022-10-23T02:24:22.791Z,1008.90
2022-10-23T02:25:23.047Z,1008.98
2022-10-23T02:26:22.638Z,1008.94
2022-10-23T02:27:22.610Z,1008.94
2022-10-23T02:28:22.737Z,1008.92
2022-10-23T02:29:22.635Z,1008.91
2022-10-23T02:30:22.658Z,1008.90
2022-10-23T02:31:22.573Z,1008.85
2022-10-23T02:32:22.587Z,1008.81
2022-10-23T02:33:22.584Z,1008.80
2022-10-23T02:34:22.495Z,1008.74
2022-10-23T02:35:22.594Z,1008.73
2022-10-23T02:36:22.558Z,1008.67
2022-10-23T02:38:22.513Z,1008.58
2022-10-23T02:39:22.468Z,1008.59
2022-10-23T02:40:22.539Z,1008.57
2022-10-23T02:41:22.410Z,1008.59
2022-10-23T02:42:22.488Z,1008.57
2022-10-23T02:43:22.419Z,1008.61
2022-10-23T02:44:22.468Z,1008.58
2022-10-23T02:45:22.478Z,1008.59
2022-10-23T02:46:22.449Z,1008.57
2022-10-23T02:47:22.413Z,1008.60
2022-10-23T02:48:22.539Z,1008.61
2022-10-23T02:49:22.334Z,1008.60
2022-10-23T02:50:22.351Z,1008.61
2022-10-23T02:51:22.297Z,1008.58
2022-10-23T02:52:22.251Z,1008.58
2022-10-23T02:53:22.293Z,1008.59
2022-10-23T02:54:22.261Z,1008.57
2022-10-23T02:55:22.365Z,1008.58
2022-10-23T02:56:22.257Z,1008.58
2022-10-23T02:57:22.279Z,1008.59
2022-10-23T02:58:22.293Z,1008.55
2022-10-23T02:59:22.236Z,1008.55
2022-10-23T03:00:22.194Z,1008.57
2022-10-23T03:01:22.267Z,1008.55
2022-10-23T03:02:22.327Z,1008.56
2022-10-23T03:03:22.199Z,1008.53
2022-10-23T03:04:22.246Z,1008.54
2022-10-23T03:05:22.237Z,1008.49
2022-10-23T03:06:22.216Z,1008.49
2022-10-23T03:07:22.144Z,1008.46
2022-10-23T03:08:22.077Z,1008.44
2022-10-23T03:09:22.063Z,1008.42
2022-10-23T03:10:22.116Z,1008.41
2022-10-23T03:11:22.065Z,1008.41
2022-10-23T03:12:21.983Z,1008.39
2022-10-23T03:13:22.069Z,1008.41
2022-10-23T03:14:22.014Z,1008.38
2022-10-23T03:15:21.997Z,1008.42
2022-10-23T03:16:21.965Z,1008.38
2022-10-23T03:17:22.053Z,1008.41
2022-10-23T03:18:22.007Z,1008.47
2022-10-23T03:19:21.924Z,1008.52
2022-10-23T03:20:21.938Z,1008.55
2022-10-23T03:21:21.994Z,1008.56
2022-10-23T03:22:21.963Z,1008.56
2022-10-23T03:23:21.871Z,1008.53
2022-10-23T03:24:21.901Z,1008.56
2022-10-23T03:25:21.839Z,1008.53
2022-10-23T03:26:21.854Z,1008.51
2022-10-23T03:27:21.971Z,1008.54
2022-10-23T03:28:21.863Z,1008.55
2022-10-23T03:29:21.857Z,1008.56
2022-10-23T03:30:21.795Z,1008.57
2022-10-23T03:31:21.813Z,1008.56
2022-10-23T03:32:21.733Z,1008.55
2022-10-23T03:33:21.762Z,1008.50
2022-10-23T03:34:21.724Z,1008.48
2022-10-23T03:35:21.744Z,1008.43
2022-10-23T03:36:21.693Z,1008.42
2022-10-23T03:37:21.741Z,1008.42
2022-10-23T03:38:21.667Z,1008.38
2022-10-23T03:39:21.703Z,1008.35
2022-10-23T03:40:21.671Z,1008.35
2022-10-23T03:41:21.696Z,1008.36
2022-10-23T03:42:21.645Z,1008.30
2022-10-23T03:43:21.580Z,1008.30
2022-10-23T03:44:21.734Z,1008.35
2022-10-23T03:45:21.624Z,1008.30
2022-10-23T03:46:21.617Z,1008.29
2022-10-23T03:47:21.618Z,1008.27
2022-10-23T03:48:21.642Z,1008.23
2022-10-23T03:49:21.564Z,1008.23
2022-10-23T03:50:21.671Z,1008.21
2022-10-23T03:51:21.523Z,1008.22
2022-10-23T03:52:21.493Z,1008.21
2022-10-23T03:53:21.476Z,1008.14
2022-10-23T03:54:21.468Z,1008.10
2022-10-23T03:55:21.499Z,1008.08
2022-10-23T03:56:21.459Z,1008.06
2022-10-23T03:57:21.379Z,1008.07
2022-10-23T03:58:21.407Z,1008.13
2022-10-23T03:59:21.499Z,1008.12
2022-10-23T04:00:21.482Z,1008.10
2022-10-23T04:01:21.460Z,1008.11
2022-10-23T04:02:21.518Z,1008.10
2022-10-23T04:03:21.358Z,1008.11
2022-10-23T04:04:21.309Z,1008.13
2022-10-23T04:05:21.330Z,1008.12
2022-10-23T04:06:21.378Z,1008.09
2022-10-23T04:07:21.333Z,1008.11
2022-10-23T04:08:21.238Z,1008.10
2022-10-23T04:09:21.288Z,1008.06
2022-10-23T04:10:21.288Z,1008.04
2022-10-23T04:11:21.253Z,1008.05
2022-10-23T04:12:21.290Z,1008.04
2022-10-23T04:13:21.242Z,1008.07
2022-10-23T04:14:21.281Z,1008.07
2022-10-23T04:15:21.261Z,1008.04
2022-10-23T04:16:21.198Z,1008.04
2022-10-23T04:17:21.188Z,1008.05
2022-10-23T04:18:21.186Z,1008.01
2022-10-23T04:19:21.224Z,1008.05
2022-10-23T04:20:21.441Z,1008.04
2022-10-23T04:21:21.127Z,1008.05
2022-10-23T04:22:24.676Z,1008.05
2022-10-23T04:23:22.092Z,1008.04
2022-10-23T04:24:21.133Z,1008.05
2022-10-23T04:25:21.535Z,1008.01
2022-10-23T04:26:21.076Z,1008.02
2022-10-23T04:27:21.095Z,1008.04
2022-10-23T04:28:21.086Z,1008.04
2022-10-23T04:29:21.002Z,1008.06
2022-10-23T04:30:21.114Z,1008.03
2022-10-23T04:31:21.025Z,1007.95
2022-10-23T04:32:21.001Z,1007.99
2022-10-23T04:33:21.052Z,1007.95
2022-10-23T04:34:20.910Z,1007.95
2022-10-23T04:35:20.966Z,1007.95
2022-10-23T04:36:20.970Z,1007.95
2022-10-23T04:37:20.939Z,1007.95
2022-10-23T04:38:20.965Z,1007.95
2022-10-23T04:39:20.887Z,1007.94
2022-10-23T04:40:20.975Z,1007.97
2022-10-23T04:41:20.914Z,1007.95
2022-10-23T04:42:20.933Z,1007.99
2022-10-23T04:43:20.792Z,1007.94
2022-10-23T04:44:20.877Z,1007.96
2022-10-23T04:45:20.886Z,1007.92
2022-10-23T04:46:20.888Z,1007.93
2022-10-23T04:47:20.855Z,1007.92
2022-10-23T04:48:23.382Z,1007.93
2022-10-23T04:49:20.826Z,1007.89
2022-10-23T04:50:20.822Z,1007.86
2022-10-23T04:51:20.766Z,1007.86
2022-10-23T04:52:20.823Z,1007.86
2022-10-23T04:53:20.835Z,1007.82
2022-10-23T04:54:20.740Z,1007.83
2022-10-23T04:55:20.712Z,1007.81
2022-10-23T04:56:20.808Z,1007.76
2022-10-23T04:57:20.759Z,1007.81
2022-10-23T04:58:20.676Z,1007.79
2022-10-23T04:59:20.684Z,1007.75
2022-10-23T05:00:20.645Z,1007.77
2022-10-23T05:01:20.663Z,1007.73
2022-10-23T05:02:20.711Z,1007.69
2022-10-23T05:03:20.634Z,1007.71
2022-10-23T05:04:20.574Z,1007.69
2022-10-23T05:05:20.576Z,1007.68
2022-10-23T05:06:20.551Z,1007.65
2022-10-23T05:08:20.573Z,1007.65
2022-10-23T05:09:20.550Z,1007.61
2022-10-23T05:10:20.514Z,1007.64
2022-10-23T05:11:20.526Z,1007.63
2022-10-23T05:12:20.474Z,1007.60
2022-10-23T05:13:20.510Z,1007.68
2022-10-23T05:14:22.690Z,1007.70
2022-10-23T05:15:20.529Z,1007.64
2022-10-23T05:16:20.436Z,1007.63
2022-10-23T05:17:20.465Z,1007.60
2022-10-23T05:18:20.367Z,1007.59
2022-10-23T05:19:23.341Z,1007.62
2022-10-23T05:20:20.302Z,1007.62
2022-10-23T05:21:20.325Z,1007.61
2022-10-23T05:22:20.420Z,1007.63
2022-10-23T05:23:20.347Z,1007.58
2022-10-23T05:24:20.395Z,1007.60
2022-10-23T05:25:20.352Z,1007.66
2022-10-23T05:26:20.418Z,1007.61
2022-10-23T05:27:20.322Z,1007.60
2022-10-23T05:28:20.376Z,1007.61
2022-10-23T05:29:20.303Z,1007.58
2022-10-23T05:30:20.259Z,1007.56
2022-10-23T05:31:20.322Z,1007.60
2022-10-23T05:33:20.227Z,1007.56
2022-10-23T05:34:20.163Z,1007.52
2022-10-23T05:35:20.145Z,1007.52
2022-10-23T05:36:20.283Z,1007.50
2022-10-23T05:37:20.322Z,1007.46
2022-10-23T05:38:20.166Z,1007.50
2022-10-23T05:39:20.178Z,1007.47
2022-10-23T05:40:20.190Z,1007.53
2022-10-23T05:41:20.120Z,1007.53
2022-10-23T05:42:20.106Z,1007.54
2022-10-23T05:43:20.123Z,1007.54
2022-10-23T05:44:20.031Z,1007.55
2022-10-23T05:45:20.031Z,1007.46
2022-10-23T05:46:20.103Z,1007.47
2022-10-23T05:47:20.049Z,1007.45
2022-10-23T05:48:30.024Z,1007.46
2022-10-23T05:49:20.941Z,1007.45
2022-10-23T05:50:20.039Z,1007.43
2022-10-23T05:51:20.009Z,1007.45
2022-10-23T05:52:20.083Z,1007.46
2022-10-23T05:53:19.935Z,1007.51
2022-10-23T05:54:19.976Z,1007.50
2022-10-23T05:55:20.071Z,1007.50
2022-10-23T05:56:20.111Z,1007.52
2022-10-23T05:57:20.018Z,1007.46
2022-10-23T05:58:20.015Z,1007.50
2022-10-23T05:59:22.884Z,1007.49
2022-10-23T06:00:19.975Z,1007.49
2022-10-23T06:01:20.054Z,1007.45
2022-10-23T06:02:19.979Z,1007.46
2022-10-23T06:03:19.843Z,1007.42
2022-10-23T06:04:19.762Z,1007.40
2022-10-23T06:05:19.909Z,1007.37
2022-10-23T06:06:19.855Z,1007.34
2022-10-23T06:07:19.817Z,1007.30
2022-10-23T06:08:19.762Z,1007.30
2022-10-23T06:09:19.761Z,1007.30
2022-10-23T06:10:19.755Z,1007.32
2022-10-23T06:11:20.188Z,1007.26
2022-10-23T06:12:19.721Z,1007.22
2022-10-23T06:13:19.697Z,1007.22
2022-10-23T06:14:19.857Z,1007.28
2022-10-23T06:15:19.706Z,1007.24
2022-10-23T06:16:19.727Z,1007.30
2022-10-23T06:17:19.638Z,1007.29
2022-10-23T06:18:19.627Z,1007.27
2022-10-23T06:19:19.661Z,1007.27
2022-10-23T06:20:19.615Z,1007.21
2022-10-23T06:21:19.696Z,1007.20
2022-10-23T06:23:19.588Z,1007.18
2022-10-23T06:24:19.558Z,1007.17
2022-10-23T06:25:19.823Z,1007.16
2022-10-23T06:26:19.609Z,1007.22
2022-10-23T06:27:19.612Z,1007.23
2022-10-23T06:28:20.681Z,1007.27
2022-10-23T06:29:19.503Z,1007.24
2022-10-23T06:30:19.479Z,1007.24
2022-10-23T06:31:19.570Z,1007.23
2022-10-23T06:32:19.521Z,1007.22
2022-10-23T06:33:19.442Z,1007.20
2022-10-23T06:34:19.442Z,1007.26
2022-10-23T06:35:19.434Z,1007.23
2022-10-23T06:36:19.784Z,1007.14
2022-10-23T06:37:19.488Z,1007.14
2022-10-23T06:38:19.486Z,1007.09
2022-10-23T06:39:19.404Z,1007.13
2022-10-23T06:40:19.384Z,1007.05
2022-10-23T06:41:19.487Z,1007.12
2022-10-23T06:42:19.350Z,1007.12
2022-10-23T06:43:19.303Z,1007.05
2022-10-23T06:44:19.340Z,1007.11
2022-10-23T06:45:19.279Z,1007.06
2022-10-23T06:46:19.236Z,1007.03
2022-10-23T06:47:19.327Z,1007.02
2022-10-23T06:48:19.262Z,1007.00
2022-10-23T06:49:19.187Z,1006.97
2022-10-23T06:50:19.234Z,1006.94
2022-10-23T06:51:19.259Z,1006.96
2022-10-23T06:52:41.759Z,1006.91
2022-10-23T06:53:20.275Z,1006.91
2022-10-23T06:54:19.208Z,1006.92
2022-10-23T06:55:19.202Z,1006.95
2022-10-23T06:56:19.243Z,1006.97
2022-10-23T06:57:19.238Z,1007.00
2022-10-23T06:58:19.107Z,1007.04
2022-10-23T06:59:19.137Z,1007.00
2022-10-23T07:00:19.060Z,1006.98
2022-10-23T07:01:19.509Z,1007.02
2022-10-23T07:02:19.084Z,1007.00
2022-10-23T07:03:19.238Z,1007.00
2022-10-23T07:04:19.123Z,1007.06
2022-10-23T07:05:19.071Z,1007.05
2022-10-23T07:06:19.023Z,1007.08
2022-10-23T07:07:19.297Z,1007.08
2022-10-23T07:08:18.974Z,1007.09
2022-10-23T07:09:19.016Z,1007.03
2022-10-23T07:10:19.014Z,1007.07
2022-10-23T07:11:18.946Z,1007.02
2022-10-23T07:12:18.940Z,1007.01
2022-10-23T07:13:18.978Z,1006.99
2022-10-23T07:14:18.996Z,1006.98
2022-10-23T07:15:19.276Z,1006.98
2022-10-23T07:16:18.930Z,1006.99
2022-10-23T07:17:19.144Z,1007.01
2022-10-23T07:18:18.894Z,1007.00
2022-10-23T07:19:18.835Z,1006.99
2022-10-23T07:20:18.760Z,1006.95
2022-10-23T07:21:18.866Z,1007.00
2022-10-23T07:22:18.787Z,1006.95
2022-10-23T07:23:18.952Z,1006.96
2022-10-23T07:24:18.775Z,1006.94
2022-10-23T07:25:18.952Z,1007.00
2022-10-23T07:26:18.729Z,1007.02
2022-10-23T07:27:20.438Z,1007.05
2022-10-23T07:28:31.312Z,1007.01
2022-10-23T07:29:29.845Z,1007.03
2022-10-23T07:30:36.063Z,1007.03
2022-10-23T07:31:54.219Z,1006.98
2022-10-23T07:32:44.975Z,1006.95
2022-10-23T07:33:53.225Z,1006.97
2022-10-23T07:41:01.812Z,1006.91
2022-10-23T07:42:31.061Z,1006.84
2022-10-23T07:46:19.006Z,1006.93
2022-10-23T07:47:11.608Z,1006.90
2022-10-23T07:48:09.376Z,1006.88
2022-10-23T07:49:14.741Z,1006.88
2022-10-23T07:50:08.814Z,1006.89
2022-10-23T07:51:13.990Z,1006.85
2022-10-23T07:52:07.430Z,1006.86
2022-10-23T07:53:05.995Z,1006.87
2022-10-23T07:54:05.923Z,1006.86
2022-10-23T07:55:07.577Z,1006.88
2022-10-23T07:56:03.385Z,1006.86
2022-10-23T07:57:06.911Z,1006.87
2022-10-23T07:58:09.916Z,1006.89
2022-10-23T07:59:07.301Z,1006.89
2022-10-23T08:00:02.150Z,1006.91
2022-10-23T08:01:05.126Z,1006.92
2022-10-23T08:02:04.332Z,1006.92
2022-10-23T08:03:03.906Z,1006.89
2022-10-23T08:04:03.745Z,1006.88
2022-10-23T08:05:03.627Z,1006.89
2022-10-23T08:06:03.727Z,1006.86
2022-10-23T08:07:04.990Z,1006.84
2022-10-23T08:08:02.787Z,1006.81
2022-10-23T08:09:06.536Z,1006.78
2022-10-23T08:10:11.119Z,1006.71
2022-10-23T08:11:04.883Z,1006.72
2022-10-23T08:12:04.283Z,1006.66
2022-10-23T08:13:03.526Z,1006.69
2022-10-23T08:14:04.839Z,1006.70
2022-10-23T08:15:04.723Z,1006.72
2022-10-23T08:16:04.669Z,1006.72
2022-10-23T08:17:04.078Z,1006.75
2022-10-23T08:18:04.796Z,1006.75
2022-10-23T08:19:01.930Z,1006.72
2022-10-23T08:20:03.782Z,1006.74
2022-10-23T08:21:08.191Z,1006.68
2022-10-23T08:22:06.505Z,1006.71
2022-10-23T08:23:07.002Z,1006.71
2022-10-23T08:24:04.681Z,1006.71
2022-10-23T08:25:09.180Z,1006.72
2022-10-23T08:26:04.880Z,1006.74
2022-10-23T08:27:06.943Z,1006.69
2022-10-23T08:28:06.201Z,1006.70
2022-10-23T08:29:03.560Z,1006.72
2022-10-23T08:30:02.937Z,1006.67
2022-10-23T08:31:03.335Z,1006.67
2022-10-23T08:32:05.741Z,1006.66
2022-10-23T08:33:01.922Z,1006.61
2022-10-23T08:34:08.755Z,1006.63
2022-10-23T08:35:05.382Z,1006.60
2022-10-23T08:36:05.223Z,1006.64
2022-10-23T08:37:13.060Z,1006.63
2022-10-23T08:38:06.495Z,1006.56
2022-10-23T08:39:09.921Z,1006.56
2022-10-23T08:40:10.381Z,1006.61
2022-10-23T08:41:14.135Z,1006.62
2022-10-23T08:42:08.487Z,1006.64
2022-10-23T08:43:01.762Z,1006.64
2022-10-23T08:44:01.477Z,1006.62
2022-10-23T08:45:01.733Z,1006.58
2022-10-23T08:46:03.351Z,1006.64
2022-10-23T08:47:02.631Z,1006.55
2022-10-23T08:48:01.521Z,1006.58
2022-10-23T08:49:01.493Z,1006.59
2022-10-23T08:50:07.500Z,1006.59
2022-10-23T08:51:03.470Z,1006.64
2022-10-23T08:52:07.209Z,1006.56
2022-10-23T08:53:08.243Z,1006.52
2022-10-23T08:54:01.647Z,1006.48
2022-10-23T08:55:02.273Z,1006.52
2022-10-23T08:56:03.011Z,1006.51
2022-10-23T08:57:05.406Z,1006.45
2022-10-23T08:58:02.819Z,1006.44
2022-10-23T08:59:04.700Z,1006.40
2022-10-23T09:00:08.038Z,1006.40
2022-10-23T09:01:20.542Z,1006.38
2022-10-23T09:02:12.584Z,1006.38
2022-10-23T09:03:08.016Z,1006.33
2022-10-23T09:04:09.115Z,1006.30
2022-10-23T09:07:01.632Z,1006.30
2022-10-23T09:07:51.032Z,1006.23
2022-10-23T09:08:56.396Z,1006.22
2022-10-23T09:09:47.845Z,1006.27
2022-10-23T09:11:15.256Z,1006.23
2022-10-23T09:11:56.640Z,1006.19
2022-10-23T09:12:52.020Z,1006.18
2022-10-23T09:13:46.801Z,1006.20
2022-10-23T09:14:45.706Z,1006.18
2022-10-23T09:15:49.170Z,1006.16
2022-10-23T09:16:46.018Z,1006.13
2022-10-23T09:17:46.728Z,1006.12
2022-10-23T09:18:45.223Z,1006.13
2022-10-23T09:19:44.640Z,1006.11
2022-10-23T09:20:45.087Z,1006.16
2022-10-23T09:21:46.614Z,1006.13
2022-10-23T09:22:44.065Z,1006.15
2022-10-23T09:23:44.104Z,1006.13
2022-10-23T09:24:44.148Z,1006.09
2022-10-23T09:25:45.210Z,1006.12
2022-10-23T09:26:45.129Z,1006.07
2022-10-23T09:27:46.193Z,1006.04
2022-10-23T09:28:44.091Z,1006.08
2022-10-23T09:29:47.683Z,1006.07
2022-10-23T09:30:44.219Z,1006.07
2022-10-23T09:31:47.660Z,1006.06
2022-10-23T09:32:46.571Z,1006.05
2022-10-23T09:33:45.448Z,1006.05
2022-10-23T09:34:45.477Z,1005.99
2022-10-23T09:35:47.552Z,1005.99
2022-10-23T09:36:44.065Z,1005.96
2022-10-23T09:37:46.407Z,1005.91
2022-10-23T09:38:43.966Z,1005.92
2022-10-23T09:39:43.822Z,1005.89
2022-10-23T09:40:48.711Z,1005.90
2022-10-23T09:41:45.012Z,1005.90
2022-10-23T09:42:43.823Z,1005.91
2022-10-23T09:43:44.044Z,1005.87
2022-10-23T09:44:44.587Z,1005.90
2022-10-23T09:45:44.917Z,1005.83
2022-10-23T09:46:43.766Z,1005.85
2022-10-23T09:47:44.886Z,1005.79
2022-10-23T09:48:45.063Z,1005.77
2022-10-23T09:49:47.232Z,1005.73
2022-10-23T09:50:43.863Z,1005.77
2022-10-23T09:51:50.360Z,1005.77
2022-10-23T09:52:46.799Z,1005.78
2022-10-23T09:53:44.587Z,1005.76
2022-10-23T09:54:54.073Z,1005.73
2022-10-23T09:55:43.938Z,1005.68
2022-10-23T09:56:57.076Z,1005.67
2022-10-23T09:57:56.009Z,1005.67
2022-10-23T09:58:47.385Z,1005.58
2022-10-23T09:59:44.315Z,1005.61
2022-10-23T10:00:44.097Z,1005.59
2022-10-23T10:01:44.054Z,1005.58
2022-10-23T10:02:44.828Z,1005.58
2022-10-23T10:04:06.669Z,1005.59
2022-10-23T10:04:51.034Z,1005.56
2022-10-23T10:05:59.061Z,1005.56
2022-10-23T10:06:55.438Z,1005.58
2022-10-23T10:07:54.124Z,1005.58
2022-10-23T10:08:45.091Z,1005.54
2022-10-23T10:09:51.618Z,1005.54
2022-10-23T10:10:48.655Z,1005.52
2022-10-23T10:11:47.518Z,1005.54
2022-10-23T10:17:18.579Z,1005.64
2022-10-23T10:18:13.662Z,1005.60
2022-10-23T10:18:51.141Z,1005.59
2022-10-23T10:54:31.890Z,1005.07
2022-10-23T10:55:12.145Z,1005.04
2022-10-23T10:56:16.064Z,1005.04
2022-10-23T11:03:00.549Z,1004.97
2022-10-23T11:03:39.999Z,1004.89
2022-10-23T11:04:38.187Z,1004.90
2022-10-23T11:05:39.600Z,1004.89
2022-10-23T11:06:40.550Z,1004.84
2022-10-23T11:07:36.392Z,1004.84
2022-10-23T11:08:44.666Z,1004.81
2022-10-23T11:09:40.263Z,1004.80
2022-10-23T11:10:36.290Z,1004.78
2022-10-23T11:11:39.220Z,1004.77
2022-10-23T11:12:37.170Z,1004.75
2022-10-23T11:13:37.652Z,1004.67
2022-10-23T11:14:38.088Z,1004.67
2022-10-23T11:15:37.167Z,1004.59
2022-10-23T11:16:36.569Z,1004.56
2022-10-23T11:17:36.448Z,1004.60
2022-10-23T11:18:37.113Z,1004.62
2022-10-23T11:19:36.266Z,1004.62
2022-10-23T11:20:36.287Z,1004.58
2022-10-23T11:21:36.145Z,1004.56
2022-10-23T11:22:36.537Z,1004.53
2022-10-23T11:23:36.815Z,1004.55
2022-10-23T11:24:36.411Z,1004.52
2022-10-23T11:25:36.390Z,1004.51
2022-10-23T11:26:36.460Z,1004.45
2022-10-23T11:27:36.050Z,1004.43
2022-10-23T11:28:36.741Z,1004.40
2022-10-23T11:29:37.039Z,1004.37
2022-10-23T11:30:36.153Z,1004.33
2022-10-23T11:31:40.011Z,1004.32
2022-10-23T11:32:39.565Z,1004.32
2022-10-23T11:33:40.332Z,1004.29
2022-10-23T11:34:38.761Z,1004.27
2022-10-23T11:35:38.407Z,1004.19
2022-10-23T11:36:40.278Z,1004.15
2022-10-23T11:37:38.566Z,1004.09
2022-10-23T11:38:37.146Z,1004.06
2022-10-23T11:39:39.571Z,1004.05
2022-10-23T11:40:39.610Z,1004.04
2022-10-23T11:41:37.346Z,1004.03
2022-10-23T11:42:39.024Z,1003.99
2022-10-23T11:43:39.293Z,1004.02
2022-10-23T11:44:37.700Z,1003.96
2022-10-23T11:45:38.953Z,1003.94
2022-10-23T11:46:40.364Z,1003.94
2022-10-23T11:47:40.661Z,1003.88
2022-10-23T11:48:39.840Z,1003.90
2022-10-23T11:49:38.183Z,1003.90
2022-10-23T11:50:45.767Z,1003.88
2022-10-23T11:51:41.748Z,1003.88
2022-10-23T11:52:50.820Z,1003.84
2022-10-23T11:53:45.901Z,1003.82
2022-10-23T11:54:38.166Z,1003.79
2022-10-23T11:55:37.031Z,1003.74
2022-10-23T11:56:36.628Z,1003.69
2022-10-23T11:57:39.915Z,1003.65
2022-10-23T11:58:38.495Z,1003.59
2022-10-23T11:59:40.683Z,1003.59
2022-10-23T12:00:41.168Z,1003.55
2022-10-23T12:01:40.142Z,1003.49
2022-10-23T12:02:37.597Z,1003.50
2022-10-23T12:03:37.809Z,1003.50
2022-10-23T12:04:39.904Z,1003.45
2022-10-23T12:05:39.135Z,1003.49
2022-10-23T12:06:42.437Z,1003.52
2022-10-23T12:07:42.124Z,1003.48
2022-10-23T12:08:38.286Z,1003.50
2022-10-23T12:09:38.478Z,1003.44
2022-10-23T12:10:44.299Z,1003.43
2022-10-23T12:11:42.110Z,1003.41
2022-10-23T12:12:38.946Z,1003.46
2022-10-23T12:13:35.352Z,1003.40
2022-10-23T12:14:42.579Z,1003.43
2022-10-23T12:15:39.826Z,1003.42
2022-10-23T12:16:37.989Z,1003.41
2022-10-23T12:17:45.651Z,1003.40
2022-10-23T12:18:39.907Z,1003.39
2022-10-23T12:19:38.111Z,1003.39
2022-10-23T12:20:40.319Z,1003.37
2022-10-23T12:21:45.473Z,1003.39
2022-10-23T12:22:42.157Z,1003.40
2022-10-23T12:23:45.751Z,1003.41
2022-10-23T12:24:37.750Z,1003.39
2022-10-23T12:25:35.997Z,1003.37
2022-10-23T12:26:39.651Z,1003.36
2022-10-23T12:27:46.043Z,1003.36
2022-10-23T12:28:39.670Z,1003.35
2022-10-23T12:29:37.788Z,1003.27
2022-10-23T12:30:39.999Z,1003.29
2022-10-23T12:31:37.478Z,1003.21
2022-10-23T12:32:40.518Z,1003.27
2022-10-23T12:33:37.136Z,1003.20
2022-10-23T12:34:39.927Z,1003.25
2022-10-23T12:35:36.849Z,1003.22
2022-10-23T12:36:35.300Z,1003.35
2022-10-23T12:37:49.440Z,1003.33
2022-10-23T12:38:53.626Z,1003.34
2022-10-23T12:46:17.903Z,1003.11
2022-10-23T12:47:16.805Z,1003.08
2022-10-23T12:48:16.652Z,1003.07
2022-10-23T12:49:17.547Z,1003.07
2022-10-23T12:51:53.001Z,1002.96
2022-10-23T12:52:48.285Z,1002.88
2022-10-23T12:53:48.246Z,1002.83
2022-10-23T12:54:46.806Z,1002.86
2022-10-23T12:55:52.302Z,1002.89
2022-10-23T12:56:46.995Z,1002.90
2022-10-23T12:57:46.197Z,1002.95
2022-10-23T12:58:46.827Z,1002.89
2022-10-23T12:59:52.866Z,1002.85
2022-10-23T13:00:49.400Z,1002.84
2022-10-23T13:01:52.586Z,1002.78
2022-10-23T13:02:50.990Z,1002.72
2022-10-23T13:03:49.511Z,1002.65
2022-10-23T13:04:45.940Z,1002.59
2022-10-23T13:05:46.448Z,1002.52
2022-10-23T13:06:46.644Z,1002.53
2022-10-23T13:07:47.818Z,1002.47
2022-10-23T13:08:47.100Z,1002.51
2022-10-23T13:09:46.951Z,1002.54
2022-10-23T13:10:48.682Z,1002.53
2022-10-23T13:11:46.150Z,1002.48
2022-10-23T13:12:48.208Z,1002.43
2022-10-23T13:13:51.956Z,1002.41